Time;durP1;ratioP1;P1;durP2;ratioP2;P2;SDS_P1;SDS_P2;PMS_P1;PMS_P2;Temp;Humidity;BMP_temperature;BMP_pressure;BME280_temperature;BME280_humidity;BME280_pressure;Samples;Min_cycle;Max_cycle;Signal;HPM_P1;HPM_P2
2023/09/23 00:01:35;;;;;;;13.03;11.17;;;;;;;;;;5013923;28;20168;-70
2023/09/23 00:04:01;;;;;;;15.23;10.87;;;;;;;;;;5012008;28;20207;-69
2023/09/23 00:06:27;;;;;;;12.80;11.17;;;;;;;;;;5013351;28;20700;-70
2023/09/23 00:08:55;;;;;;;12.30;11.00;;;;;;;;;;5013655;28;20177;-70
2023/09/23 00:11:21;;;;;;;14.10;11.77;;;;;;;;;;5013303;28;20176;-70
2023/09/23 00:13:47;;;;;;;14.67;12.47;;;;;;;;;;5013177;28;20701;-70
2023/09/23 00:16:14;;;;;;;14.60;12.70;;;;;;;;;;5013424;28;20180;-70
2023/09/23 00:18:40;;;;;;;16.67;12.63;;;;;;;;;;5013236;28;20171;-70
2023/09/23 00:21:07;;;;;;;16.80;13.13;;;;;;;;;;5011869;28;20211;-70
2023/09/23 00:23:34;;;;;;;13.50;11.93;;;;;;;;;;5013149;28;20203;-70
2023/09/23 00:26:01;;;;;;;12.43;11.23;;;;;;;;;;5011846;28;20207;-70
2023/09/23 00:28:30;;;;;;;12.90;11.60;;;;;;;;;;5013118;28;20176;-70
2023/09/23 00:31:10;;;;;;;13.33;11.07;;;;;;;;;;5012996;28;20222;-70
2023/09/23 00:33:37;;;;;;;13.40;10.07;;;;;;;;;;5012053;28;20211;-71
2023/09/23 00:36:04;;;;;;;11.70;10.20;;;;;;;;;;5013390;28;20160;-70
2023/09/23 00:38:32;;;;;;;12.43;10.47;;;;;;;;;;5013068;28;20186;-70
2023/09/23 00:40:58;;;;;;;10.47;9.37;;;;;;;;;;5011686;28;20184;-70
2023/09/23 00:43:24;;;;;;;10.07;9.00;;;;;;;;;;5012885;28;20202;-70
2023/09/23 00:45:51;;;;;;;9.37;8.07;;;;;;;;;;5013206;28;20203;-70
2023/09/23 00:48:21;;;;;;;10.70;9.10;;;;;;;;;;5012969;28;20196;-70
2023/09/23 00:50:47;;;;;;;9.30;7.80;;;;;;;;;;5012949;28;20168;-70
2023/09/23 00:53:14;;;;;;;10.20;7.67;;;;;;;;;;5011584;28;20187;-71
2023/09/23 00:55:52;;;;;;;8.40;7.50;;;;;;;;;;5013138;28;20549;-70
2023/09/23 00:58:20;;;;;;;9.70;6.83;;;;;;;;;;5012976;28;20627;-70
2023/09/23 01:00:46;;;;;;;6.80;6.10;;;;;;;;;;5013208;28;20545;-70
2023/09/23 01:03:13;;;;;;;6.30;5.70;;;;;;;;;;5011503;28;20176;-71
2023/09/23 01:05:40;;;;;;;5.97;5.30;;;;;;;;;;5013005;28;20204;-70
2023/09/23 01:08:07;;;;;;;5.73;5.23;;;;;;;;;;5011497;28;20214;-70
2023/09/23 01:10:33;;;;;;;7.77;5.50;;;;;;;;;;5013719;28;20172;-70
2023/09/23 01:12:59;;;;;;;11.27;7.60;;;;;;;;;;5016788;28;20180;-70
2023/09/23 01:15:28;;;;;;;13.30;10.60;;;;;;;;;;5015143;28;20200;-70
2023/09/23 01:17:54;;;;;;;27.67;21.33;;;;;;;;;;5015037;28;20278;-70
2023/09/23 01:20:21;;;;;;;24.80;19.63;;;;;;;;;;5016336;28;20179;-70
2023/09/23 01:22:49;;;;;;;28.40;20.63;;;;;;;;;;5016744;28;20183;-71
2023/09/23 01:25:16;;;;;;;32.67;25.17;;;;;;;;;;5016404;28;20208;-70
2023/09/23 01:27:42;;;;;;;30.73;23.87;;;;;;;;;;5016653;28;20211;-71
2023/09/23 01:30:09;;;;;;;33.43;25.13;;;;;;;;;;5016111;28;20180;-70
2023/09/23 01:32:37;;;;;;;35.07;27.60;;;;;;;;;;5016069;28;20551;-70
2023/09/23 01:35:05;;;;;;;36.80;27.47;;;;;;;;;;5015896;28;20757;-70
2023/09/23 01:37:31;;;;;;;36.13;27.93;;;;;;;;;;5015988;28;20326;-70
2023/09/23 01:39:57;;;;;;;40.17;27.20;;;;;;;;;;5015845;28;20184;-70
2023/09/23 01:42:23;;;;;;;36.37;26.97;;;;;;;;;;5016170;28;20188;-70
2023/09/23 01:44:49;;;;;;;34.30;24.70;;;;;;;;;;5015709;28;20200;-70
2023/09/23 01:47:21;;;;;;;34.20;26.23;;;;;;;;;;5014370;28;20183;-70
2023/09/23 01:49:47;;;;;;;35.00;25.10;;;;;;;;;;5016022;28;20160;-70
2023/09/23 01:52:16;;;;;;;32.70;24.00;;;;;;;;;;5015734;28;20183;-71
2023/09/23 01:54:44;;;;;;;34.50;23.87;;;;;;;;;;5014353;28;20755;-70
2023/09/23 01:57:16;;;;;;;31.80;22.73;;;;;;;;;;5016264;28;20258;-70
2023/09/23 01:59:42;;;;;;;31.53;21.83;;;;;;;;;;5016090;28;20160;-70
2023/09/23 02:02:09;;;;;;;30.30;21.23;;;;;;;;;;5015625;28;20172;-70
2023/09/23 02:04:37;;;;;;;29.80;19.63;;;;;;;;;;5016164;28;20199;-70
2023/09/23 02:07:03;;;;;;;28.83;19.83;;;;;;;;;;5015939;28;20180;-70
2023/09/23 02:09:30;;;;;;;27.70;17.87;;;;;;;;;;5014135;28;20222;-70
2023/09/23 02:11:56;;;;;;;25.93;17.63;;;;;;;;;;5014163;28;20180;-70
2023/09/23 02:14:22;;;;;;;23.50;16.60;;;;;;;;;;5014047;28;20196;-70
2023/09/23 02:16:49;;;;;;;25.33;16.40;;;;;;;;;;5015616;28;20176;-71
2023/09/23 02:19:16;;;;;;;23.33;16.30;;;;;;;;;;5015391;28;20653;-70
2023/09/23 02:21:42;;;;;;;20.13;15.87;;;;;;;;;;5013575;28;20186;-69
2023/09/23 02:24:08;;;;;;;27.03;16.33;;;;;;;;;;5013380;28;20196;-70
2023/09/23 02:26:34;;;;;;;22.63;16.27;;;;;;;;;;5015091;28;20208;-70
2023/09/23 02:29:00;;;;;;;22.47;15.80;;;;;;;;;;5015493;28;20188;-70
2023/09/23 02:31:26;;;;;;;21.03;14.67;;;;;;;;;;5014125;28;20185;-70
2023/09/23 02:33:52;;;;;;;22.73;14.93;;;;;;;;;;5015242;28;20212;-71
2023/09/23 02:36:18;;;;;;;26.47;14.80;;;;;;;;;;5015510;28;20172;-70
2023/09/23 02:38:43;;;;;;;16.60;13.43;;;;;;;;;;5015181;28;20267;-70
2023/09/23 02:41:09;;;;;;;21.93;13.57;;;;;;;;;;5015469;28;20689;-70
2023/09/23 02:43:36;;;;;;;18.77;13.07;;;;;;;;;;5014936;28;20714;-70
2023/09/23 02:46:03;;;;;;;17.93;12.93;;;;;;;;;;5015188;28;20207;-70
2023/09/23 02:48:29;;;;;;;18.67;12.93;;;;;;;;;;5013707;28;20275;-70
2023/09/23 02:51:03;;;;;;;19.43;13.07;;;;;;;;;;5015007;28;20228;-71
2023/09/23 02:53:30;;;;;;;19.87;12.50;;;;;;;;;;5014982;28;20587;-70
2023/09/23 02:56:00;;;;;;;19.37;11.90;;;;;;;;;;5013513;28;20238;-70
2023/09/23 02:58:27;;;;;;;18.73;12.23;;;;;;;;;;5014035;28;20554;-70
2023/09/23 03:01:01;;;;;;;16.93;12.10;;;;;;;;;;5014784;28;20172;-70
2023/09/23 03:03:27;;;;;;;18.13;12.03;;;;;;;;;;5014561;28;20218;-70
2023/09/23 03:05:55;;;;;;;19.60;12.17;;;;;;;;;;5014778;28;20704;-70
2023/09/23 03:08:29;;;;;;;16.53;10.63;;;;;;;;;;5014834;28;20168;-70
2023/09/23 03:10:56;;;;;;;18.37;10.93;;;;;;;;;;5014432;28;20545;-71
2023/09/23 03:13:23;;;;;;;16.97;10.00;;;;;;;;;;5013106;28;20196;-71
2023/09/23 03:15:58;;;;;;;15.73;9.93;;;;;;;;;;5013228;28;20724;-70
2023/09/23 03:18:33;;;;;;;17.23;9.20;;;;;;;;;;5014344;28;20658;-70
2023/09/23 03:21:10;;;;;;;14.70;8.80;;;;;;;;;;5014812;28;20166;-70
2023/09/23 03:23:40;;;;;;;17.70;8.20;;;;;;;;;;5012758;28;20210;-71
2023/09/23 03:26:08;;;;;;;15.90;7.20;;;;;;;;;;5014332;28;20191;-70
2023/09/23 03:28:35;;;;;;;7.83;7.03;;;;;;;;;;5014417;28;20179;-70
2023/09/23 03:31:02;;;;;;;14.97;7.67;;;;;;;;;;5012704;28;20176;-71
2023/09/23 03:33:28;;;;;;;13.03;6.53;;;;;;;;;;5013613;28;20266;-71
2023/09/23 03:35:54;;;;;;;11.87;6.00;;;;;;;;;;5012683;28;20748;-70
2023/09/23 03:38:20;;;;;;;9.50;5.53;;;;;;;;;;5013929;28;20215;-69
2023/09/23 03:40:59;;;;;;;8.30;5.10;;;;;;;;;;5013824;28;20229;-70
2023/09/23 03:43:25;;;;;;;8.90;5.27;;;;;;;;;;5013970;28;20689;-70
2023/09/23 03:45:52;;;;;;;8.37;5.00;;;;;;;;;;5012416;28;20207;-70
2023/09/23 03:48:18;;;;;;;6.50;4.77;;;;;;;;;;5013704;28;20168;-69
2023/09/23 03:50:44;;;;;;;10.20;4.80;;;;;;;;;;5013956;28;20178;-70
2023/09/23 03:53:13;;;;;;;10.80;5.03;;;;;;;;;;5012276;28;20195;-70
2023/09/23 03:55:39;;;;;;;8.60;5.20;;;;;;;;;;5013583;28;20288;-69
2023/09/23 03:58:05;;;;;;;8.03;4.43;;;;;;;;;;5013593;28;20646;-70
2023/09/23 04:00:35;;;;;;;7.80;4.17;;;;;;;;;;5012387;28;20337;-70
2023/09/23 04:03:01;;;;;;;9.73;4.00;;;;;;;;;;5013471;28;20192;-69
2023/09/23 04:05:28;;;;;;;6.60;4.10;;;;;;;;;;5012354;28;20208;-70
2023/09/23 04:07:54;;;;;;;8.23;3.70;;;;;;;;;;5013437;28;20680;-70
2023/09/23 04:10:24;;;;;;;10.27;4.00;;;;;;;;;;5012284;28;20599;-70
2023/09/23 04:12:51;;;;;;;12.93;4.30;;;;;;;;;;5013680;28;20516;-69
2023/09/23 04:15:19;;;;;;;6.80;3.40;;;;;;;;;;5012335;28;20269;-70
2023/09/23 04:17:45;;;;;;;5.77;3.47;;;;;;;;;;5012132;28;20211;-70
2023/09/23 04:20:14;;;;;;;5.93;3.30;;;;;;;;;;5012084;28;20208;-70
2023/09/23 04:22:41;;;;;;;5.80;3.30;;;;;;;;;;5011984;28;20187;-69
2023/09/23 04:25:08;;;;;;;6.87;3.17;;;;;;;;;;5013196;28;20254;-70
2023/09/23 04:27:34;;;;;;;9.27;3.20;;;;;;;;;;5013482;28;20183;-70
2023/09/23 04:30:01;;;;;;;6.70;3.07;;;;;;;;;;5013701;28;20180;-70
2023/09/23 04:32:28;;;;;;;7.63;3.13;;;;;;;;;;5013663;28;20556;-70
2023/09/23 04:34:55;;;;;;;12.43;3.70;;;;;;;;;;5013066;28;20218;-70
2023/09/23 04:37:21;;;;;;;6.67;3.17;;;;;;;;;;5011968;28;20180;-69
2023/09/23 04:39:47;;;;;;;6.20;2.83;;;;;;;;;;5013256;28;20180;-70
2023/09/23 04:42:13;;;;;;;7.60;3.20;;;;;;;;;;5013259;28;20172;-70
2023/09/23 04:44:41;;;;;;;4.77;3.00;;;;;;;;;;5013429;28;20287;-69
2023/09/23 04:47:07;;;;;;;12.80;3.07;;;;;;;;;;5015441;28;20657;-69
2023/09/23 04:49:33;;;;;;;8.73;3.47;;;;;;;;;;5017865;28;20199;-69
2023/09/23 04:51:59;;;;;;;11.37;3.17;;;;;;;;;;5016114;28;20650;-69
2023/09/23 04:54:25;;;;;;;10.13;3.30;;;;;;;;;;5017534;28;20196;-69
2023/09/23 04:56:51;;;;;;;5.77;3.33;;;;;;;;;;5018530;28;20203;-70
2023/09/23 04:59:18;;;;;;;7.60;3.33;;;;;;;;;;5017736;28;20263;-70
2023/09/23 05:01:44;;;;;;;5.73;3.40;;;;;;;;;;5015760;28;20237;-70
2023/09/23 05:04:10;;;;;;;5.17;2.80;;;;;;;;;;5015360;28;20223;-70
2023/09/23 05:06:36;;;;;;;8.97;2.53;;;;;;;;;;5016533;28;20227;-70
2023/09/23 05:09:03;;;;;;;10.17;3.13;;;;;;;;;;5015287;28;20604;-70
2023/09/23 05:11:29;;;;;;;7.60;3.07;;;;;;;;;;5015280;28;20625;-70
2023/09/23 05:13:55;;;;;;;12.57;3.20;;;;;;;;;;5015235;28;20227;-69
2023/09/23 05:16:22;;;;;;;11.93;3.47;;;;;;;;;;5016670;28;20553;-70
2023/09/23 05:18:49;;;;;;;6.83;3.17;;;;;;;;;;5015449;28;20569;-69
2023/09/23 05:21:18;;;;;;;7.50;3.40;;;;;;;;;;5016257;28;20184;-69
2023/09/23 05:23:47;;;;;;;5.80;3.43;;;;;;;;;;5016413;28;20199;-70
2023/09/23 05:26:13;;;;;;;9.90;3.63;;;;;;;;;;5014973;28;20215;-69
2023/09/23 05:28:39;;;;;;;9.13;3.50;;;;;;;;;;5014844;28;20171;-70
2023/09/23 05:31:05;;;;;;;6.07;3.13;;;;;;;;;;5014913;28;20176;-69
2023/09/23 05:33:31;;;;;;;5.67;3.40;;;;;;;;;;5016136;28;20208;-69
2023/09/23 05:35:57;;;;;;;7.10;4.60;;;;;;;;;;5014942;28;20176;-69
2023/09/23 05:38:23;;;;;;;5.77;3.60;;;;;;;;;;5014900;28;20188;-70
2023/09/23 05:40:52;;;;;;;13.77;3.80;;;;;;;;;;5016005;28;20183;-70
2023/09/23 05:43:18;;;;;;;7.20;3.43;;;;;;;;;;5014677;28;20338;-70
2023/09/23 05:45:44;;;;;;;8.40;3.33;;;;;;;;;;5039798;23;20298;-67
2023/09/23 05:48:10;;;;;;;7.17;3.20;;;;;;;;;;5014377;28;20211;-67
2023/09/23 05:50:36;;;;;;;4.63;2.83;;;;;;;;;;5014521;28;20183;-66
2023/09/23 05:53:02;;;;;;;7.30;3.60;;;;;;;;;;5015904;28;20550;-67
2023/09/23 05:55:31;;;;;;;8.77;3.23;;;;;;;;;;5016110;28;20184;-66
2023/09/23 05:57:57;;;;;;;11.50;3.60;;;;;;;;;;5013068;28;20204;-66
2023/09/23 06:00:23;;;;;;;10.67;3.57;;;;;;;;;;5015847;28;20595;-66
2023/09/23 06:02:49;;;;;;;6.73;3.17;;;;;;;;;;5016135;28;20179;-67
2023/09/23 06:05:15;;;;;;;7.90;3.57;;;;;;;;;;5014158;28;20596;-66
2023/09/23 06:07:41;;;;;;;7.17;3.40;;;;;;;;;;5015373;28;20192;-66
2023/09/23 06:10:08;;;;;;;10.80;3.43;;;;;;;;;;5015402;28;20258;-66
2023/09/23 06:12:35;;;;;;;11.20;3.83;;;;;;;;;;5014174;28;20180;-66
2023/09/23 06:15:02;;;;;;;5.27;3.57;;;;;;;;;;5015560;28;20168;-66
2023/09/23 06:17:28;;;;;;;5.97;3.90;;;;;;;;;;5013964;28;20204;-66
2023/09/23 06:19:56;;;;;;;8.80;3.70;;;;;;;;;;5015468;28;20176;-66
2023/09/23 06:22:22;;;;;;;9.43;3.80;;;;;;;;;;5015370;28;20204;-66
2023/09/23 06:24:52;;;;;;;7.03;3.57;;;;;;;;;;5013862;28;20234;-66
2023/09/23 06:27:18;;;;;;;9.33;3.70;;;;;;;;;;5013841;28;20200;-66
2023/09/23 06:29:44;;;;;;;6.87;3.80;;;;;;;;;;5015276;28;20176;-66
2023/09/23 06:32:10;;;;;;;5.53;3.43;;;;;;;;;;5015193;28;20186;-66
2023/09/23 06:34:36;;;;;;;10.90;4.33;;;;;;;;;;5015500;28;20184;-66
2023/09/23 06:37:03;;;;;;;6.23;3.80;;;;;;;;;;5015349;28;20229;-66
2023/09/23 06:39:29;;;;;;;6.90;3.73;;;;;;;;;;5016330;28;20645;-67
2023/09/23 06:41:55;;;;;;;7.33;3.50;;;;;;;;;;5014958;28;20172;-67
2023/09/23 06:44:21;;;;;;;6.77;3.00;;;;;;;;;;5013701;28;20230;-67
2023/09/23 06:46:47;;;;;;;10.90;3.70;;;;;;;;;;5014923;28;20223;-66
2023/09/23 06:49:13;;;;;;;6.80;3.53;;;;;;;;;;5013551;28;20271;-67
2023/09/23 06:51:40;;;;;;;5.90;3.40;;;;;;;;;;5016291;28;20226;-66
2023/09/23 06:54:07;;;;;;;8.20;3.40;;;;;;;;;;5013983;28;20578;-66
2023/09/23 06:56:34;;;;;;;8.93;3.70;;;;;;;;;;5013128;28;20298;-66
2023/09/23 06:59:00;;;;;;;8.33;3.63;;;;;;;;;;5014166;28;20188;-67
2023/09/23 07:01:26;;;;;;;5.00;3.17;;;;;;;;;;5014587;28;20183;-67
2023/09/23 07:03:52;;;;;;;4.27;3.20;;;;;;;;;;5014699;28;20180;-66
2023/09/23 07:06:18;;;;;;;12.27;3.40;;;;;;;;;;5014490;28;20218;-67
2023/09/23 07:08:44;;;;;;;6.43;2.80;;;;;;;;;;5014161;28;20183;-67
2023/09/23 07:11:14;;;;;;;7.13;3.00;;;;;;;;;;5015785;28;20280;-70
2023/09/23 07:13:40;;;;;;;8.87;3.10;;;;;;;;;;5014889;28;20172;-65
2023/09/23 07:16:06;;;;;;;7.93;3.07;;;;;;;;;;5014334;28;20219;-65
2023/09/23 07:18:33;;;;;;;6.93;3.40;;;;;;;;;;5012751;28;20196;-65
2023/09/23 07:20:59;;;;;;;6.67;2.90;;;;;;;;;;5014123;28;20638;-66
2023/09/23 07:23:25;;;;;;;7.40;3.07;;;;;;;;;;5013639;28;20706;-69
2023/09/23 07:25:52;;;;;;;8.00;3.10;;;;;;;;;;5015024;28;20290;-64
2023/09/23 07:28:19;;;;;;;7.07;3.17;;;;;;;;;;5014817;28;20259;-67
2023/09/23 07:30:45;;;;;;;5.47;3.23;;;;;;;;;;5014817;28;20226;-67
2023/09/23 07:33:11;;;;;;;7.77;2.90;;;;;;;;;;5014635;28;20180;-67
2023/09/23 07:35:37;;;;;;;6.83;3.40;;;;;;;;;;5014222;28;20187;-67
2023/09/23 07:38:03;;;;;;;5.77;2.97;;;;;;;;;;5014338;28;20211;-68
2023/09/23 07:40:30;;;;;;;7.30;3.40;;;;;;;;;;5014138;28;20536;-67
2023/09/23 07:42:56;;;;;;;6.57;2.77;;;;;;;;;;5013057;28;20199;-67
2023/09/23 07:45:22;;;;;;;6.83;4.10;;;;;;;;;;5014264;28;20203;-67
2023/09/23 07:47:49;;;;;;;4.67;2.87;;;;;;;;;;5013593;28;20589;-67
2023/09/23 07:50:16;;;;;;;19.30;13.83;;;;;;;;;;5013612;28;20745;-68
2023/09/23 07:52:42;;;;;;;16.80;9.23;;;;;;;;;;5014885;28;20202;-67
2023/09/23 07:55:08;;;;;;;7.87;3.43;;;;;;;;;;5014626;28;20176;-67
2023/09/23 07:57:34;;;;;;;6.93;3.60;;;;;;;;;;5013433;28;20261;-68
2023/09/23 08:00:00;;;;;;;9.40;4.00;;;;;;;;;;5015683;28;20176;-68
2023/09/23 08:02:27;;;;;;;5.83;3.97;;;;;;;;;;5014388;28;20237;-68
2023/09/23 08:04:53;;;;;;;10.63;5.07;;;;;;;;;;5015831;28;20183;-68
2023/09/23 08:07:19;;;;;;;10.27;4.47;;;;;;;;;;5015772;28;20203;-68
2023/09/23 08:09:45;;;;;;;6.13;4.23;;;;;;;;;;5013197;28;20176;-68
2023/09/23 08:12:11;;;;;;;7.37;4.33;;;;;;;;;;5013127;28;20313;-68
2023/09/23 08:14:37;;;;;;;5.47;3.43;;;;;;;;;;5014692;28;20642;-68
2023/09/23 08:17:03;;;;;;;6.67;3.43;;;;;;;;;;5013465;28;20200;-67
2023/09/23 08:19:29;;;;;;;7.90;3.03;;;;;;;;;;5014006;28;20279;-68
2023/09/23 08:21:54;;;;;;;6.13;3.20;;;;;;;;;;5012171;28;20649;-70
2023/09/23 08:24:21;;;;;;;7.40;3.42;;;;;;;;;;5011398;28;20420;-68
2023/09/23 08:26:47;;;;;;;6.75;3.25;;;;;;;;;;5011260;28;20405;-68
2023/09/23 08:29:14;;;;;;;7.20;3.40;;;;;;;;;;5014973;28;20234;-68
2023/09/23 08:31:40;;;;;;;9.93;3.07;;;;;;;;;;5013723;28;20603;-68
2023/09/23 08:34:09;;;;;;;7.47;2.93;;;;;;;;;;5013454;28;20172;-68
2023/09/23 08:36:35;;;;;;;7.17;3.20;;;;;;;;;;5012043;28;20203;-68
2023/09/23 08:39:02;;;;;;;6.33;3.23;;;;;;;;;;5013280;28;20238;-68
2023/09/23 08:41:29;;;;;;;6.13;3.50;;;;;;;;;;5012008;28;20573;-69
2023/09/23 08:43:55;;;;;;;6.20;2.90;;;;;;;;;;5012225;28;20635;-68
2023/09/23 08:46:22;;;;;;;6.03;2.97;;;;;;;;;;5013229;28;20243;-68
2023/09/23 08:48:48;;;;;;;8.63;2.90;;;;;;;;;;5012074;28;20195;-68
2023/09/23 08:51:14;;;;;;;5.97;3.40;;;;;;;;;;5014811;28;20180;-68
2023/09/23 08:53:42;;;;;;;7.03;3.60;;;;;;;;;;5013749;28;20204;-68
2023/09/23 08:56:08;;;;;;;11.50;3.10;;;;;;;;;;5012309;28;20211;-68
2023/09/23 08:58:34;;;;;;;3.27;2.80;;;;;;;;;;5013017;28;20180;-68
2023/09/23 09:01:01;;;;;;;8.17;3.37;;;;;;;;;;5011674;28;20180;-68
2023/09/23 09:03:27;;;;;;;5.13;3.10;;;;;;;;;;5013083;28;20242;-68
2023/09/23 09:05:53;;;;;;;7.37;3.40;;;;;;;;;;5012974;28;20554;-68
2023/09/23 09:08:19;;;;;;;4.60;3.00;;;;;;;;;;5012665;28;20222;-68
2023/09/23 09:10:46;;;;;;;8.70;3.40;;;;;;;;;;5014057;28;20180;-68
2023/09/23 09:13:13;;;;;;;8.70;3.93;;;;;;;;;;5011580;28;20613;-68
2023/09/23 09:15:39;;;;;;;5.87;3.13;;;;;;;;;;5012058;28;20184;-68
2023/09/23 09:18:05;;;;;;;3.93;3.20;;;;;;;;;;5012231;28;20247;-71
2023/09/23 09:20:31;;;;;;;9.93;3.70;;;;;;;;;;5012859;28;20215;-69
2023/09/23 09:22:58;;;;;;;6.03;3.10;;;;;;;;;;5012804;28;20218;-70
2023/09/23 09:25:24;;;;;;;5.13;3.03;;;;;;;;;;5012137;28;20283;-68
2023/09/23 09:27:52;;;;;;;3.83;3.10;;;;;;;;;;5012161;28;20272;-69
2023/09/23 09:30:19;;;;;;;6.93;3.23;;;;;;;;;;5012002;28;20241;-68
2023/09/23 09:32:45;;;;;;;6.03;3.40;;;;;;;;;;5015549;28;20547;-68
2023/09/23 09:35:15;;;;;;;5.77;3.50;;;;;;;;;;5015412;28;20694;-68
2023/09/23 09:37:51;;;;;;;6.23;2.90;;;;;;;;;;5015690;28;20290;-68
2023/09/23 09:40:18;;;;;;;5.17;3.27;;;;;;;;;;5018231;28;20164;-67
2023/09/23 09:42:53;;;;;;;6.43;3.60;;;;;;;;;;5015660;28;20657;-68
2023/09/23 09:45:20;;;;;;;7.23;3.00;;;;;;;;;;5015692;28;20306;-68
2023/09/23 09:47:48;;;;;;;4.30;2.87;;;;;;;;;;5016055;28;20211;-68
2023/09/23 09:50:14;;;;;;;8.67;3.07;;;;;;;;;;5015270;28;20182;-69
2023/09/23 09:52:43;;;;;;;5.67;3.07;;;;;;;;;;5017344;28;20584;-68
2023/09/23 09:55:10;;;;;;;8.03;3.07;;;;;;;;;;5015969;28;20183;-68
2023/09/23 09:57:36;;;;;;;6.47;2.53;;;;;;;;;;5016988;28;20282;-69
2023/09/23 10:00:20;;;;;;;6.40;3.00;;;;;;;;;;5016790;28;20234;-68
2023/09/23 10:02:48;;;;;;;5.80;2.83;;;;;;;;;;5017310;28;20164;-69
2023/09/23 10:05:17;;;;;;;5.93;3.20;;;;;;;;;;5019512;28;20176;-69
2023/09/23 10:07:55;;;;;;;10.07;3.37;;;;;;;;;;5023358;28;20257;-70
2023/09/23 10:10:31;;;;;;;2.90;2.57;;;;;;;;;;5024510;28;20195;-69
2023/09/23 10:12:59;;;;;;;4.37;2.57;;;;;;;;;;5025447;28;20176;-68
2023/09/23 10:15:29;;;;;;;6.70;2.63;;;;;;;;;;5023597;28;20172;-68
2023/09/23 10:17:57;;;;;;;4.93;2.67;;;;;;;;;;5025136;28;20693;-68
2023/09/23 10:20:31;;;;;;;5.33;2.43;;;;;;;;;;5025446;28;20200;-69
2023/09/23 10:22:59;;;;;;;5.23;2.33;;;;;;;;;;5030015;28;20183;-69
2023/09/23 10:25:36;;;;;;;5.30;2.60;;;;;;;;;;5027583;28;20195;-68
2023/09/23 10:28:04;;;;;;;5.23;2.57;;;;;;;;;;5025579;28;20222;-67
2023/09/23 10:30:30;;;;;;;2.87;2.23;;;;;;;;;;5028406;28;20176;-67
2023/09/23 10:32:56;;;;;;;5.93;2.37;;;;;;;;;;5028649;28;20180;-68
2023/09/23 10:35:23;;;;;;;4.90;2.30;;;;;;;;;;5028554;28;20195;-69
2023/09/23 10:37:49;;;;;;;4.57;2.70;;;;;;;;;;5028000;28;20254;-68
2023/09/23 10:40:17;;;;;;;4.73;2.40;;;;;;;;;;5030274;28;20184;-69
2023/09/23 10:42:45;;;;;;;4.90;2.47;;;;;;;;;;5027475;28;20188;-68
2023/09/23 10:45:11;;;;;;;7.50;2.57;;;;;;;;;;5024924;28;20194;-68
2023/09/23 10:47:38;;;;;;;5.73;2.70;;;;;;;;;;5019581;28;20216;-69
2023/09/23 10:50:07;;;;;;;4.00;2.47;;;;;;;;;;5020488;28;20203;-68
2023/09/23 10:52:34;;;;;;;5.93;2.50;;;;;;;;;;5020657;28;20257;-68
2023/09/23 10:55:00;;;;;;;5.00;2.20;;;;;;;;;;5019683;28;20239;-69
2023/09/23 10:57:27;;;;;;;6.23;2.30;;;;;;;;;;5020693;28;20246;-68
2023/09/23 10:59:53;;;;;;;6.57;2.60;;;;;;;;;;5020997;28;20253;-68
2023/09/23 11:02:20;;;;;;;3.77;2.10;;;;;;;;;;5018648;28;20183;-68
2023/09/23 11:04:49;;;;;;;4.47;1.97;;;;;;;;;;5017897;28;20203;-68
2023/09/23 11:07:16;;;;;;;4.47;2.20;;;;;;;;;;5019008;28;20211;-68
2023/09/23 11:09:44;;;;;;;8.20;2.00;;;;;;;;;;5018180;28;20175;-69
2023/09/23 11:12:13;;;;;;;2.63;1.93;;;;;;;;;;5019633;28;20172;-69
2023/09/23 11:14:42;;;;;;;5.00;2.00;;;;;;;;;;5018305;28;20176;-69
2023/09/23 11:17:18;;;;;;;3.80;1.80;;;;;;;;;;5016495;28;20204;-70
2023/09/23 11:19:52;;;;;;;4.13;2.00;;;;;;;;;;5015961;28;20198;-69
2023/09/23 11:22:27;;;;;;;7.40;2.23;;;;;;;;;;5018735;28;20172;-69
2023/09/23 11:24:57;;;;;;;4.63;1.70;;;;;;;;;;5017130;28;20184;-70
2023/09/23 11:27:24;;;;;;;6.50;2.20;;;;;;;;;;5016714;28;20219;-70
2023/09/23 11:29:50;;;;;;;4.40;1.97;;;;;;;;;;5016671;28;20176;-69
2023/09/23 11:32:26;;;;;;;4.63;1.87;;;;;;;;;;5016198;28;20182;-70
2023/09/23 11:34:52;;;;;;;2.73;1.77;;;;;;;;;;5017339;28;20159;-70
2023/09/23 11:37:20;;;;;;;3.17;1.93;;;;;;;;;;5016810;28;20199;-70
2023/09/23 11:39:46;;;;;;;2.67;1.70;;;;;;;;;;5016756;28;20179;-69
2023/09/23 11:42:12;;;;;;;2.87;1.90;;;;;;;;;;5016651;28;20262;-70
2023/09/23 11:44:38;;;;;;;9.40;1.93;;;;;;;;;;5016545;28;20215;-69
2023/09/23 11:47:05;;;;;;;3.70;2.00;;;;;;;;;;5014777;28;20219;-69
2023/09/23 11:49:31;;;;;;;4.13;1.80;;;;;;;;;;5015961;28;20188;-69
2023/09/23 11:51:57;;;;;;;4.37;2.07;;;;;;;;;;5016511;28;20404;-69
2023/09/23 11:54:24;;;;;;;3.17;1.57;;;;;;;;;;5014819;28;20188;-69
2023/09/23 11:56:50;;;;;;;3.10;1.77;;;;;;;;;;5015993;28;20689;-70
2023/09/23 11:59:20;;;;;;;5.30;2.07;;;;;;;;;;5015792;28;20593;-69
2023/09/23 12:01:47;;;;;;;6.63;2.27;;;;;;;;;;5015401;28;20274;-70
2023/09/23 12:04:13;;;;;;;5.03;1.90;;;;;;;;;;5030172;23;20244;-69
2023/09/23 12:06:39;;;;;;;3.67;1.93;;;;;;;;;;5012435;28;20208;-68
2023/09/23 12:09:09;;;;;;;3.60;1.70;;;;;;;;;;5013623;28;20262;-70
2023/09/23 12:11:35;;;;;;;4.10;2.17;;;;;;;;;;5013045;28;20182;-70
2023/09/23 12:14:01;;;;;;;4.07;2.10;;;;;;;;;;5014353;28;20636;-70
2023/09/23 12:16:27;;;;;;;6.27;1.90;;;;;;;;;;5012894;28;20279;-70
2023/09/23 12:18:53;;;;;;;3.73;1.80;;;;;;;;;;5013194;28;20184;-71
2023/09/23 12:21:20;;;;;;;6.87;1.83;;;;;;;;;;5012807;28;20643;-70
2023/09/23 12:23:46;;;;;;;4.03;2.00;;;;;;;;;;5014417;28;20211;-70
2023/09/23 12:26:12;;;;;;;4.13;1.97;;;;;;;;;;5016254;28;20208;-71
2023/09/23 12:28:38;;;;;;;4.63;1.83;;;;;;;;;;5021186;28;20223;-70
2023/09/23 12:31:04;;;;;;;3.90;1.97;;;;;;;;;;5021216;28;20180;-71
2023/09/23 12:33:30;;;;;;;6.40;2.00;;;;;;;;;;5018171;28;20184;-70
2023/09/23 12:35:57;;;;;;;4.37;2.00;;;;;;;;;;5016768;28;20661;-69
2023/09/23 12:38:23;;;;;;;5.17;1.90;;;;;;;;;;5012804;28;20180;-71
2023/09/23 12:40:49;;;;;;;4.03;1.87;;;;;;;;;;5014710;28;20180;-70
2023/09/23 12:43:15;;;;;;;3.33;1.93;;;;;;;;;;5013807;28;20184;-71
2023/09/23 12:45:43;;;;;;;10.07;2.03;;;;;;;;;;5012909;28;20211;-69
2023/09/23 12:48:09;;;;;;;6.37;2.07;;;;;;;;;;5014086;28;20230;-70
2023/09/23 12:50:35;;;;;;;5.80;1.70;;;;;;;;;;5014085;28;20266;-70
2023/09/23 12:53:02;;;;;;;5.23;2.10;;;;;;;;;;5014610;28;20270;-71
2023/09/23 12:55:28;;;;;;;4.83;2.43;;;;;;;;;;5014454;28;20204;-70
2023/09/23 12:57:55;;;;;;;3.27;1.90;;;;;;;;;;5013118;28;20238;-70
2023/09/23 13:00:21;;;;;;;3.47;1.80;;;;;;;;;;5014192;28;20200;-72
2023/09/23 13:02:47;;;;;;;4.70;2.10;;;;;;;;;;5014288;28;20186;-70
2023/09/23 13:05:16;;;;;;;3.57;1.87;;;;;;;;;;5012552;28;20243;-70
2023/09/23 13:07:42;;;;;;;4.93;2.30;;;;;;;;;;5015935;28;20183;-70
2023/09/23 13:10:12;;;;;;;3.67;2.00;;;;;;;;;;5029830;28;20164;-70
2023/09/23 13:12:38;;;;;;;5.83;2.10;;;;;;;;;;5036925;28;20160;-72
2023/09/23 13:15:05;;;;;;;6.57;1.90;;;;;;;;;;5035874;28;20242;-71
2023/09/23 13:17:31;;;;;;;5.27;2.33;;;;;;;;;;5037250;28;20211;-70
2023/09/23 13:19:57;;;;;;;7.17;2.37;;;;;;;;;;5035229;28;20188;-70
2023/09/23 13:22:23;;;;;;;6.77;2.20;;;;;;;;;;5036371;28;20172;-70
2023/09/23 13:24:49;;;;;;;7.90;2.67;;;;;;;;;;5021153;28;20570;-70
2023/09/23 13:27:15;;;;;;;6.50;2.40;;;;;;;;;;5017146;28;20281;-70
2023/09/23 13:29:41;;;;;;;7.47;2.00;;;;;;;;;;5017133;28;20176;-70
2023/09/23 13:32:07;;;;;;;5.07;2.63;;;;;;;;;;5017444;28;20554;-70
2023/09/23 13:34:33;;;;;;;3.80;2.00;;;;;;;;;;5015938;28;20573;-71
2023/09/23 13:36:59;;;;;;;5.23;2.47;;;;;;;;;;5016760;28;20184;-70
2023/09/23 13:39:25;;;;;;;7.03;3.37;;;;;;;;;;5015647;28;20234;-70
2023/09/23 13:41:53;;;;;;;6.03;3.37;;;;;;;;;;5016219;28;20673;-70
2023/09/23 13:44:19;;;;;;;3.47;2.03;;;;;;;;;;5017176;28;20282;-70
2023/09/23 13:46:45;;;;;;;5.27;2.13;;;;;;;;;;5016492;28;20690;-70
2023/09/23 13:49:11;;;;;;;4.10;2.30;;;;;;;;;;5015025;28;20179;-67
2023/09/23 13:51:37;;;;;;;7.60;1.90;;;;;;;;;;5014960;28;20203;-70
2023/09/23 13:54:03;;;;;;;4.07;1.70;;;;;;;;;;5016147;28;20224;-69
2023/09/23 13:56:29;;;;;;;3.93;1.80;;;;;;;;;;5016452;28;20188;-70
2023/09/23 13:58:55;;;;;;;6.03;3.20;;;;;;;;;;5015202;28;20279;-70
2023/09/23 14:01:21;;;;;;;13.57;8.43;;;;;;;;;;5015465;28;20233;-72
2023/09/23 14:03:48;;;;;;;6.50;3.93;;;;;;;;;;5014904;28;20215;-69
2023/09/23 14:06:14;;;;;;;4.80;2.00;;;;;;;;;;5016764;28;20227;-70
2023/09/23 14:08:40;;;;;;;15.03;7.73;;;;;;;;;;5016042;28;20179;-68
2023/09/23 14:11:06;;;;;;;5.90;2.20;;;;;;;;;;5017459;28;20180;-70
2023/09/23 14:13:32;;;;;;;31.77;21.77;;;;;;;;;;5016098;28;20204;-70
2023/09/23 14:15:58;;;;;;;17.77;12.57;;;;;;;;;;5017586;28;20285;-70
2023/09/23 14:18:24;;;;;;;12.30;9.07;;;;;;;;;;5015920;28;20619;-71
2023/09/23 14:20:51;;;;;;;5.97;4.20;;;;;;;;;;5015559;28;20580;-69
2023/09/23 14:23:17;;;;;;;7.33;2.97;;;;;;;;;;5015367;28;20180;-71
2023/09/23 14:25:43;;;;;;;6.87;5.13;;;;;;;;;;5015402;28;20203;-70
2023/09/23 14:28:09;;;;;;;3.63;2.60;;;;;;;;;;5017248;28;20240;-70
2023/09/23 14:30:35;;;;;;;7.33;3.73;;;;;;;;;;5015884;28;20180;-70
2023/09/23 14:33:01;;;;;;;12.77;5.33;;;;;;;;;;5016927;28;20226;-70
2023/09/23 14:35:27;;;;;;;11.60;5.90;;;;;;;;;;5026460;28;20195;-70